Archbold, OH

3:56 PM EDT on August 27, 2014 (GMT -0400)
Wauseon Ohio | Change Station
CLOSE
Current Station
Personal Weather Station
Location: Wauseon, OH
Elevation: 787 ft
Nearby Weather Stations

Elev 787 ft 41.57 °N, 84.15 °W | Updated 12 minutes ago

Clear
Clear
84.6 °F
Feels Like 86 °F
N
1.6
Wind Variable Wind from NE
Gusts 6.9 mph

Today
High -- | Low -- °F
--% Chance of Precip.
Yesterday
High -- | Low -- °F
Precip. -- in
6:58 AM 8:18 PM
Waxing Crescent, 5% visible
Pressure 30.08 in
Visibility 10.0 miles
Clouds Few 4400 ft
Heat Index 86 °F
Dew Point 65 °F
Humidity 52%
Rainfall 0.00 in
Snow Depth Not available.
UV 7 out of 12
Pollen 10.00 out of 12
Air Quality Not available.
Flu Activity Not available.
METAR KUSE 271935Z AUTO VRB03KT 10SM FEW044 28/17 A3008 RMK AO2

More Conditions Fewer Conditions

Pressure 30.08 in
Visibility 10.0 miles
Clouds Few 4400 ft
Heat Index 86 °F
Dew Point 65 °F
Humidity 52%
Rainfall 0.00 in
Snow Depth Not available.
UV 7 out of 12
Pollen 10.00 out of 12
Air Quality Not available.
Flu Activity Not available.
METAR KUSE 271935Z AUTO VRB03KT 10SM FEW044 28/17 A3008 RMK AO2

More Conditions Fewer Conditions

10-Day Weather Forecast

Almanac

Astronomy

Aug. 27, 2014 Rise Set
Actual Time 6:58 AM EDT 8:18 PM EDT
Civil Twilight 6:29 AM EDT 8:47 PM EDT
Nautical Twilight 5:54 AM EDT 9:21 PM EDT
Astronomical Twilight 5:18 AM EDT 9:58 PM EDT
Moon 8:55 AM EDT 9:07 PM EDT
Length of Visible Light 14h 17m
Length of Day
13h 20m
Tomorrow will be 2m 38s shorter.
Waxing Crescent, 5% of the Moon is Illuminated
Today
Waxing Crescent
Sep 2
First Quarter
Sep 8
Full
Sep 15
Last Quarter
Sep 24
New

Today's Extremes

State Highs State Lows

Community

WunderPhotos

Upload Photos

1,747,771 photos uploaded!

Nearby

Snow Depth

Station Depth Elevation
No new snow has been reported.

Earthquake Activity

City Distance Mag. Time & Date
No recent earthquake activity has been reported nearby.
Minimum magnitude displayed is 2.5.

Coastal Water Temperatures

Place Temperature
No Stations Reporting

Nearby Weather Stations